Latest Weather Observations for Alva Beach

IDQ60801

Issued at 5:33 pm EST Monday 25 July 2016 (issued every 30 minutes, with the page automatically refreshed every 10 minutes)

About weather observations | Map of weather stations | Latest weather observations for QLD | Other Formats
Station Details ID: 033295 Name: ALVA BEACH Lat: -19.46 Lon: 147.48 Height: 7.5 m
Data from the previous 72 hours. | See also: Recent months at Alva Beach
Date/Time
EST
Temp
°C
App
Temp
°C
Dew
Point
°C
Rel
Hum
%
Delta-T
°C
Wind Press
QNH
hPa
Press
MSL
hPa
Rain since
9am
mm
Dir  Spd
km/h
Gust
km/h
Spd
kts
Gust
kts
25/05:30pm 23.7 24.0 19.6 78 2.6 ENE 17 19 9 10 1014.6 1014.6 0.0
25/05:00pm 23.9 24.1 19.4 76 2.9 ENE 17 20 9 11 1014.5 1014.5 0.0
25/04:30pm 24.4 24.9 19.2 73 3.3 ENE 15 19 8 10 1014.2 1014.2 0.0
25/04:00pm 24.6 24.5 17.8 66 4.3 ENE 15 19 8 10 1014.1 1014.1 0.0
25/03:30pm 24.8 25.0 18.5 68 4.0 ENE 15 19 8 10 1014.1 1014.1 0.0
25/03:00pm 24.8 24.0 18.5 68 4.0 ENE 20 24 11 13 1014.2 1014.2 0.0
25/02:30pm 25.3 24.9 19.0 68 4.0 ENE 19 22 10 12 1014.5 1014.5 0.0
25/02:00pm 25.2 24.9 18.2 65 4.4 ENE 17 20 9 11 1014.8 1014.8 0.0
25/01:30pm 25.3 24.7 17.5 62 4.9 ENE 17 20 9 11 1015.1 1015.1 0.0
25/01:00pm 24.9 24.7 17.6 64 4.6 E 15 19 8 10 1015.5 1015.5 0.0
25/12:30pm 25.2 25.5 16.9 60 5.1 E 11 17 6 9 1015.9 1015.9 0.0
25/12:00pm 25.5 25.2 17.4 61 5.1 ENE 15 19 8 10 1016.2 1016.2 0.0
25/11:30am 25.6 25.5 15.9 55 5.9 ESE 11 15 6 8 1016.4 1016.4 0.0
25/11:00am 25.7 25.9 14.8 51 6.5 S 7 13 4 7 1016.9 1016.9 0.0
25/10:30am 25.1 24.7 15.1 53 6.0 S 11 19 6 10 1017.4 1017.4 0.0
25/10:00am 24.3 24.1 15.8 59 5.1 S 11 17 6 9 1017.5 1017.5 0.0
25/09:30am 23.6 24.2 16.9 66 4.1 S 9 13 5 7 1017.7 1017.7 0.0
25/09:00am 22.5 23.6 18.1 76 2.7 SSW 9 15 5 8 1017.5 1017.5 0.0
25/08:30am 21.2 23.4 19.3 89 1.2 SSW 6 9 3 5 1017.4 1017.4 0.0
25/08:00am 20.3 22.5 19.3 94 0.6 SSW 6 9 3 5 1017.2 1017.2 0.0
25/07:30am 18.7 20.3 17.9 95 0.5 SW 6 7 3 4 1016.8 1016.8 0.0
25/07:00am 18.6 20.2 17.9 96 0.4 SSW 6 7 3 4 1016.4 1016.4 0.0
25/06:30am 18.7 20.2 18.0 96 0.4 SSW 7 9 4 5 1016.2 1016.2 0.0
25/06:00am 19.3 21.3 18.8 97 0.3 S 6 7 3 4 1015.9 1015.9 0.0
25/05:30am 18.9 21.1 18.4 97 0.3 S 4 6 2 3 1015.6 1015.6 0.0
25/05:00am 18.9 20.7 18.4 97 0.3 SSW 6 7 3 4 1015.3 1015.3 0.0
25/04:30am 18.8 20.0 18.3 97 0.3 SSW 9 13 5 7 1015.3 1015.3 0.0
25/04:00am 18.8 20.0 18.3 97 0.3 SSW 9 11 5 6 1015.4 1015.4 0.0
25/03:30am 19.1 20.8 18.6 97 0.3 WNW 7 9 4 5 1014.9 1014.9 0.0
25/03:00am 19.3 21.1 18.8 97 0.3 WNW 7 9 4 5 1015.2 1015.2 0.0
25/02:30am 19.2 21.5 18.5 96 0.4 WNW 4 7 2 4 1015.1 1015.1 0.0
25/02:00am 19.2 20.9 18.5 96 0.4 WNW 7 7 4 4 1015.3 1015.3 0.0
25/01:30am 19.3 21.0 18.6 96 0.4 NW 7 9 4 5 1015.3 1015.3 0.0
25/01:00am 19.7 21.6 19.0 96 0.4 NW 7 9 4 5 1015.5 1015.5 0.0
25/12:30am 19.7 21.6 19.0 96 0.4 NW 7 9 4 5 1015.5 1015.5 0.0
25/12:00am 19.9 22.5 19.2 96 0.4 NW 4 9 2 5 1015.5 1015.5 0.0
 
Date/Time
EST
Temp
°C
App
Temp
°C
Dew
Point
°C
Rel
Hum
%
Delta-T
°C
Wind Press
QNH
hPa
Press
MSL
hPa
Rain since
9am
mm
Dir  Spd
km/h
Gust
km/h
Spd
kts
Gust
kts
24/11:30pm 19.9 22.8 19.1 95 0.5 NW 2 6 1 3 1015.6 1015.6 0.0
24/11:00pm 20.1 22.1 19.1 94 0.6 NW 7 9 4 5 1015.8 1015.8 0.0
24/10:30pm 20.7 23.1 19.7 94 0.6 NNW 6 9 3 5 1015.9 1015.9 0.0
24/10:00pm 20.9 24.3 19.4 91 0.9 CALM 0 0 0 0 1015.8 1015.8 0.0
24/09:30pm 21.6 24.1 19.9 90 1.1 NNW 6 9 3 5 1015.5 1015.5 0.0
24/09:00pm 21.8 24.3 19.9 89 1.2 NW 6 9 3 5 1015.4 1015.4 0.0
24/08:30pm 22.0 24.1 19.0 83 1.9 NW 6 9 3 5 1015.2 1015.2 0.0
24/08:00pm 22.0 23.8 18.8 82 2.0 NNW 7 9 4 5 1015.0 1015.0 0.0
24/07:30pm 22.3 24.2 18.9 81 2.1 NNW 7 9 4 5 1014.8 1014.8 0.0
24/07:00pm 22.6 24.5 19.0 80 2.3 NNW 7 9 4 5 1014.6 1014.6 0.0
24/06:30pm 22.9 25.0 18.9 78 2.5 N 6 11 3 6 1014.4 1014.4 0.0
24/06:00pm 23.2 25.0 18.7 76 2.8 NNW 7 9 4 5 1014.2 1014.2 0.0
24/05:30pm 23.5 25.4 18.6 74 3.1 N 6 11 3 6 1014.0 1014.0 0.0
24/05:00pm 23.9 25.1 18.3 71 3.5 N 9 13 5 7 1013.7 1013.7 0.0
24/04:30pm 24.7 25.1 18.2 67 4.1 N 13 17 7 9 1013.6 1013.6 0.0
24/04:00pm 25.1 25.8 18.8 68 4.0 NNE 13 17 7 9 1013.4 1013.4 0.0
24/03:30pm 25.5 25.9 18.9 67 4.2 NNE 15 17 8 9 1013.4 1013.4 0.0
24/03:00pm 25.1 25.0 18.8 68 4.0 NNE 17 19 9 10 1013.5 1013.5 0.0
24/02:30pm 25.6 25.9 19.7 70 3.8 NE 17 19 9 10 1013.7 1013.7 0.0
24/02:00pm 25.4 26.0 19.5 70 3.8 NE 15 17 8 9 1013.9 1013.9 0.0
24/01:30pm 25.4 26.2 19.1 68 4.0 NNE 13 17 7 9 1014.2 1014.2 0.0
24/01:00pm 25.2 25.8 18.6 67 4.2 NNE 13 15 7 8 1014.6 1014.6 0.0
24/12:30pm 25.5 26.8 19.2 68 4.0 NE 11 13 6 7 1014.9 1014.9 0.0
24/12:00pm 25.1 26.3 19.0 69 3.9 NE 11 13 6 7 1015.4 1015.4 0.0
24/11:30am 25.0 26.2 18.2 66 4.3 NE 9 11 5 6 1015.8 1015.8 0.0
24/11:00am 25.3 27.3 19.9 72 3.5 NE 9 13 5 7 1016.0 1016.0 0.0
24/10:30am 25.2 28.6 20.9 77 2.8 WSW 4 9 2 5 1016.4 1016.4 0.0
24/10:00am 23.8 26.1 19.5 77 2.8 WSW 6 9 3 5 1016.6 1016.6 0.0
24/09:30am 23.1 25.6 19.9 82 2.1 SW 6 9 3 5 1016.6 1016.6 0.0
24/09:00am 22.1 25.0 20.6 91 1.0 S 6 9 3 5 1016.6 1016.6 0.2
24/08:30am 21.1 23.8 20.3 95 0.5 S 6 7 3 4 1016.3 1016.3 0.2
24/08:00am 19.9 22.0 19.4 97 0.3 S 7 9 4 5 1016.1 1016.1 0.2
24/07:30am 18.6 20.1 18.1 97 0.3 SSW 7 9 4 5 1015.8 1015.8 0.2
24/07:00am 17.8 19.1 17.5 98 0.2 SSW 7 9 4 5 1015.4 1015.4 0.2
24/06:30am 17.8 19.1 17.5 98 0.2 SSW 7 9 4 5 1015.2 1015.2 0.2
24/06:00am 17.9 19.2 17.6 98 0.2 SSW 7 11 4 6 1014.9 1014.9 0.0
24/05:30am 17.7 18.8 17.2 97 0.3 SSE 7 11 4 6 1014.6 1014.6 0.0
24/05:00am 18.3 19.7 17.8 97 0.3 SE 7 9 4 5 1014.4 1014.4 0.0
24/04:30am 18.7 19.9 18.2 97 0.3 SE 9 9 5 5 1014.1 1014.1 0.0
24/04:00am 18.7 19.9 18.2 97 0.3 SE 9 9 5 5 1014.0 1014.0 0.0
24/03:30am 18.7 20.5 18.2 97 0.3 SE 6 9 3 5 1013.9 1013.9 0.0
24/03:00am 19.0 20.3 18.5 97 0.3 SE 9 9 5 5 1013.9 1013.9 0.0
24/02:30am 19.4 22.6 18.9 97 0.3 CALM 0 0 0 0 1014.0 1014.0 0.0
24/02:00am 19.5 22.8 19.0 97 0.3 CALM 0 0 0 0 1014.1 1014.1 0.0
24/01:30am 19.6 21.7 18.9 96 0.4 SE 6 7 3 4 1014.0 1014.0 0.0
24/01:00am 19.6 21.7 18.9 96 0.4 SE 6 7 3 4 1014.2 1014.2 0.0
24/12:30am 19.4 20.8 18.7 96 0.4 SE 9 9 5 5 1014.3 1014.3 0.0
24/12:00am 19.6 21.4 18.8 95 0.5 SE 7 9 4 5 1014.4 1014.4 0.0
 
Date/Time
EST
Temp
°C
App
Temp
°C
Dew
Point
°C
Rel
Hum
%
Delta-T
°C
Wind Press
QNH
hPa
Press
MSL
hPa
Rain since
9am
mm
Dir  Spd
km/h
Gust
km/h
Spd
kts
Gust
kts
23/11:30pm 19.9 23.2 19.1 95 0.5 CALM 0 0 0 0 1014.3 1014.3 0.0
23/11:00pm 20.2 23.5 19.2 94 0.6 CALM 0 0 0 0 1014.4 1014.4 0.0
23/10:30pm 20.8 24.3 19.5 92 0.8 CALM 0 4 0 2 1014.5 1014.5 0.0
23/10:00pm 21.1 24.2 19.4 90 1.1 NNE 2 6 1 3 1014.3 1014.3 0.0
23/09:30pm 21.8 25.1 19.9 89 1.2 NNE 2 7 1 4 1014.2 1014.2 0.0
23/09:00pm 22.4 24.3 19.8 85 1.7 NNE 9 11 5 6 1014.1 1014.1 0.0
23/08:30pm 22.8 24.4 20.0 84 1.8 NNE 11 13 6 7 1013.9 1013.9 0.0
23/08:00pm 22.9 24.0 19.7 82 2.1 NE 13 15 7 8 1013.7 1013.7 0.0
23/07:30pm 23.0 24.2 20.0 83 1.9 NNE 13 17 7 9 1013.3 1013.3 0.0
23/07:00pm 22.9 23.9 19.5 81 2.2 NNE 13 15 7 8 1013.1 1013.1 0.0
23/06:30pm 22.9 24.3 19.5 81 2.2 NNE 11 13 6 7 1012.9 1012.9 0.0
23/06:00pm 23.0 24.0 19.4 80 2.3 NNE 13 17 7 9 1012.7 1012.7 0.0
23/05:30pm 23.3 24.0 19.7 80 2.3 NE 15 17 8 9 1012.6 1012.6 0.0
23/05:00pm 23.5 24.6 20.4 83 2.0 NE 15 17 8 9 1012.5 1012.5 0.0
23/04:30pm 23.9 24.6 19.6 77 2.8 NE 15 17 8 9 1012.4 1012.4 0.0
23/04:00pm 24.3 25.4 19.6 75 3.0 NE 13 17 7 9 1012.4 1012.4 0.0
23/03:30pm 24.4 25.0 19.5 74 3.1 NE 15 17 8 9 1012.6 1012.6 0.0
23/03:00pm 24.8 26.0 19.8 74 3.2 ENE 13 17 7 9 1012.6 1012.6 0.0
23/02:30pm 24.9 26.2 20.2 75 3.1 ENE 13 17 7 9 1012.8 1012.8 0.0
23/02:00pm 24.5 25.7 19.8 75 3.0 ENE 13 19 7 10 1013.1 1013.1 0.0
23/01:30pm 24.5 25.4 19.3 73 3.3 ENE 13 17 7 9 1013.5 1013.5 0.0
23/01:00pm 24.3 25.3 19.4 74 3.1 E 13 17 7 9 1013.9 1013.9 0.0
23/12:30pm 24.3 25.3 19.4 74 3.1 E 13 17 7 9 1014.2 1014.2 0.0
23/12:00pm 24.2 25.2 18.6 71 3.5 E 11 15 6 8 1014.7 1014.7 0.0
23/11:30am 24.8 26.1 19.4 72 3.5 E 11 15 6 8 1014.9 1014.9 0.0
23/11:00am 24.8 26.4 19.2 71 3.6 E 9 13 5 7 1015.4 1015.4 0.0
23/10:30am 24.4 26.2 19.5 74 3.1 E 9 13 5 7 1015.9 1015.9 0.0
23/10:00am 23.7 26.1 19.6 78 2.6 S 6 11 3 6 1016.1 1016.1 0.0
23/09:30am 23.0 25.4 20.0 83 1.9 S 7 9 4 5 1015.9 1015.9 0.0
23/09:00am 21.8 24.4 20.1 90 1.1 S 6 9 3 5 1016.0 1016.0 0.0
23/08:30am 20.8 23.1 19.8 94 0.6 SSW 7 11 4 6 1015.7 1015.7 0.0
23/08:00am 19.8 21.8 19.1 96 0.4 SSW 7 11 4 6 1015.6 1015.6 0.0
23/07:30am 19.0 20.8 18.7 98 0.2 SSW 7 13 4 7 1015.5 1015.5 0.0
23/07:00am 18.0 19.0 17.7 98 0.2 SSW 9 15 5 8 1015.1 1015.1 0.0
23/06:30am 17.7 18.5 17.4 98 0.2 SSW 9 13 5 7 1014.6 1014.6 0.0
23/06:00am 17.7 18.5 17.4 98 0.2 SSW 9 11 5 6 1014.3 1014.3 0.0
23/05:30am 17.6 18.8 17.3 98 0.2 SSW 7 9 4 5 1013.9 1013.9 0.0
23/05:00am 17.0 17.9 16.5 97 0.3 SW 7 9 4 5 1013.9 1013.9 0.0
23/04:30am 16.8 17.6 16.3 97 0.3 WSW 7 9 4 5 1013.8 1013.8 0.0
23/04:00am 17.3 18.5 16.8 97 0.3 SW 6 7 3 4 1013.7 1013.7 0.0
23/03:30am 17.8 18.9 17.2 96 0.4 SW 7 9 4 5 1013.6 1013.6 0.0
23/03:00am 18.5 19.9 17.9 96 0.4 S 7 9 4 5 1013.6 1013.6 0.0
23/02:30am 19.0 20.8 18.3 96 0.4 SE 6 7 3 4 1013.7 1013.7 0.0
23/02:00am 18.9 20.7 18.2 96 0.4 SSE 6 7 3 4 1013.9 1013.9 0.0
23/01:30am 19.1 20.8 18.4 96 0.4 S 7 9 4 5 1014.3 1014.3 0.0
23/01:00am 18.6 20.0 17.9 96 0.4 SSW 7 9 4 5 1014.5 1014.5 0.0
23/12:30am 18.9 20.4 18.1 95 0.5 SSW 7 9 4 5 1014.7 1014.7 0.0
23/12:00am 19.2 20.9 18.4 95 0.5 SSW 7 7 4 4 1014.7 1014.7 0.0
 
Date/Time
EST
Temp
°C
App
Temp
°C
Dew
Point
°C
Rel
Hum
%
Delta-T
°C
Wind Press
QNH
hPa
Press
MSL
hPa
Rain since
9am
mm
Dir  Spd
km/h
Gust
km/h
Spd
kts
Gust
kts
22/11:30pm 19.4 21.2 18.2 93 0.7 SW 6 7 3 4 1014.9 1014.9 0.0
22/11:00pm 19.9 21.7 18.2 90 1.1 SSW 6 9 3 5 1014.8 1014.8 0.0
22/10:30pm 21.3 23.7 18.9 86 1.5 ENE 4 9 2 5 1014.9 1014.9 0.0
22/10:00pm 22.4 23.9 19.0 81 2.2 NE 9 11 5 6 1014.9 1014.9 0.0
22/09:30pm 22.5 23.5 18.7 79 2.4 ENE 11 13 6 7 1014.8 1014.8 0.0
22/09:00pm 22.8 23.5 18.8 78 2.5 ENE 13 17 7 9 1014.8 1014.8 0.0
22/08:30pm 22.8 22.6 18.6 77 2.6 ENE 17 19 9 10 1014.9 1014.9 0.0
22/08:00pm 22.8 23.0 18.6 77 2.6 ENE 15 17 8 9 1014.8 1014.8 0.0
22/07:30pm 22.8 22.8 19.0 79 2.4 ENE 17 19 9 10 1014.7 1014.7 0.0
22/07:00pm 22.7 23.8 18.9 79 2.4 ENE 11 15 6 8 1014.5 1014.5 0.0
22/06:30pm 22.7 23.7 18.7 78 2.5 ENE 11 15 6 8 1014.2 1014.2 0.0
22/06:00pm 22.8 23.5 18.8 78 2.5 ENE 13 17 7 9 1014.1 1014.1 0.0

Other Formats:

Comma delimited format used in spreadsheet applications
http://www.bom.gov.au/fwo/IDQ60801/IDQ60801.95296.axf

JavaScript Object Notation format (JSON) in row-major order
http://www.bom.gov.au/fwo/IDQ60801/IDQ60801.95296.json